Time;durP1;ratioP1;P1;durP2;ratioP2;P2;SDS_P1;SDS_P2;PMS_P1;PMS_P2;Temp;Humidity;BMP_temperature;BMP_pressure;BME280_temperature;BME280_humidity;BME280_pressure;Samples;Min_cycle;Max_cycle;Signal;HPM_P1;HPM_P2
2022/06/12 00:00:03;;;;;;;15.30;10.80;;;;;;;17.56;70.92;101740.37;1688358;83;21085;-86
2022/06/12 00:02:32;;;;;;;16.10;9.13;;;;;;;17.53;70.87;101730.59;1691341;83;21078;-86
2022/06/12 00:05:15;;;;;;;14.55;11.00;;;;;;;17.41;71.00;101711.34;1688524;84;22496;-85
2022/06/12 00:07:42;;;;;;;25.80;15.45;;;;;;;17.50;71.19;101729.21;1679151;83;21090;-85
2022/06/12 00:10:10;;;;;;;17.82;12.60;;;;;;;17.47;71.28;101729.16;1680693;84;21036;-85
2022/06/12 00:12:37;;;;;;;13.22;10.78;;;;;;;17.45;71.40;101730.47;1671059;83;21310;-86
2022/06/12 00:15:05;;;;;;;13.78;10.90;;;;;;;17.44;71.50;101723.83;1687718;84;21117;-84
2022/06/12 00:17:32;;;;;;;15.78;11.48;;;;;;;17.44;71.71;101714.06;1688154;84;22555;-86
2022/06/12 00:19:59;;;;;;;14.93;10.80;;;;;;;17.47;71.89;101719.84;1688950;84;21018;-86
2022/06/12 00:22:26;;;;;;;15.68;9.90;;;;;;;17.45;71.86;101717.61;1682078;84;21061;-85
2022/06/12 00:24:53;;;;;;;14.10;10.15;;;;;;;17.43;71.91;101715.36;1665070;84;21292;-85
2022/06/12 00:27:20;;;;;;;12.45;9.85;;;;;;;17.42;71.97;101718.92;1688649;83;21073;-86
2022/06/12 00:29:47;;;;;;;12.23;8.70;;;;;;;17.42;72.10;101713.59;1688646;84;22617;-86
2022/06/12 00:32:16;;;;;;;11.95;9.53;;;;;;;17.42;72.10;101712.27;1687288;84;21058;-86
2022/06/12 00:34:50;;;;;;;11.80;10.18;;;;;;;17.40;72.17;101704.67;1685985;83;21105;-86
2022/06/12 00:37:18;;;;;;;14.35;8.53;;;;;;;17.39;72.25;101704.23;1687491;84;21197;-86
2022/06/12 00:39:47;;;;;;;13.20;8.60;;;;;;;17.40;72.36;101708.66;1687424;83;21059;-86
2022/06/12 00:42:37;;;;;;;12.20;8.73;;;;;;;17.38;72.43;101707.34;1683805;83;22507;-85
2022/06/12 00:45:32;;;;;;;11.78;8.38;;;;;;;17.37;72.48;101700.66;1682753;85;21152;-86
2022/06/12 00:48:03;;;;;;;11.10;8.10;;;;;;;17.32;72.41;101698.37;1684007;84;21089;-86
2022/06/12 00:50:30;;;;;;;14.70;8.58;;;;;;;17.25;72.49;101707.63;1680976;84;21094;-85
2022/06/12 00:52:57;;;;;;;13.62;8.03;;;;;;;17.19;72.51;101700.90;1680648;85;21074;-85
2022/06/12 00:55:58;;;;;;;12.82;8.05;;;;;;;17.12;72.58;101706.09;1655330;85;23540;-85
2022/06/12 00:58:27;;;;;;;15.38;7.83;;;;;;;17.04;72.67;101703.33;1683084;84;21074;-87
2022/06/12 01:00:53;;;;;;;11.38;7.97;;;;;;;16.95;72.81;101697.47;1679868;84;21102;-86
2022/06/12 01:03:20;;;;;;;10.82;7.87;;;;;;;16.88;72.88;101695.59;1681692;85;21098;-86
2022/06/12 01:08:32;;;;;;;10.90;7.80;;;;;;;16.76;73.18;101694.03;1684139;85;22740;-87
2022/06/12 01:11:03;;;;;;;9.15;7.25;;;;;;;16.71;73.30;101685.56;1684026;84;22314;-86
2022/06/12 01:13:35;;;;;;;10.38;7.35;;;;;;;16.64;73.43;101691.66;1675945;85;21079;-86
2022/06/12 01:16:10;;;;;;;11.43;8.28;;;;;;;16.56;73.53;101687.11;1664831;85;21125;-86
2022/06/12 01:18:40;;;;;;;9.78;8.18;;;;;;;16.49;73.76;101681.67;1683279;84;21071;-86
2022/06/12 01:21:52;;;;;;;12.70;8.63;;;;;;;16.45;73.92;101678.97;1683177;84;21665;-86
2022/06/12 01:24:59;;;;;;;11.70;8.20;;;;;;;16.40;73.97;101679.31;1683671;85;21069;-85
2022/06/12 01:27:40;;;;;;;10.03;8.13;;;;;;;16.31;74.10;101674.33;1663555;85;21083;-86
2022/06/12 01:30:33;;;;;;;10.40;7.70;;;;;;;16.23;74.28;101670.63;1679290;85;21081;-85
2022/06/12 01:33:17;;;;;;;10.88;7.92;;;;;;;16.18;74.45;101668.36;1683729;84;21102;-85
2022/06/12 01:35:59;;;;;;;;;;;;;;;16.12;74.59;101674.46;1673224;85;21803;-86
2022/06/12 01:38:44;;;;;;;14.63;8.35;;;;;;;16.06;74.82;101673.01;1683713;85;20196;-84
2022/06/12 01:41:34;;;;;;;8.05;7.25;;;;;;;15.98;74.90;101666.68;1683746;84;21082;-88
2022/06/12 01:45:00;;;;;;;11.12;7.92;;;;;;;15.91;75.09;101670.09;1668947;83;21071;-86
2022/06/12 01:47:41;;;;;;;10.90;7.47;;;;;;;15.87;75.28;101672.23;1685284;85;21562;-85
2022/06/12 01:50:22;;;;;;;9.15;7.62;;;;;;;15.81;75.46;101672.13;1685648;85;23000;-85
2022/06/12 01:53:25;;;;;;;9.78;7.42;;;;;;;15.78;75.60;101672.06;1708678;83;21097;-86
2022/06/12 01:56:19;;;;;;;10.93;8.13;;;;;;;15.73;75.70;101670.64;1692703;83;21761;-86
2022/06/12 01:59:02;;;;;;;9.33;7.72;;;;;;;15.63;75.80;101669.54;1708823;83;21050;-86
2022/06/12 02:01:44;;;;;;;13.50;8.30;;;;;;;15.59;75.98;101678.31;1689938;83;21134;-87
2022/06/12 02:04:32;;;;;;;9.03;8.10;;;;;;;15.53;76.14;101675.11;1689317;83;21792;-86
2022/06/12 02:07:14;;;;;;;9.75;7.75;;;;;;;15.52;76.35;101680.38;1708948;83;21137;-84
2022/06/12 02:09:45;;;;;;;9.75;7.53;;;;;;;15.53;76.61;101683.08;1708991;83;21070;-84
2022/06/12 02:15:30;;;;;;;9.58;7.15;;;;;;;15.55;76.91;101683.99;1708644;83;21819;-84
2022/06/12 02:18:34;;;;;;;10.95;8.00;;;;;;;15.56;77.01;101680.94;1706667;83;21776;-85
2022/06/12 02:21:27;;;;;;;10.32;7.45;;;;;;;15.54;77.07;101683.95;1708470;83;21682;-85
2022/06/12 02:24:20;;;;;;;9.65;7.87;;;;;;;15.52;77.16;101683.03;1707409;83;21113;-85
2022/06/12 02:27:17;;;;;;;10.23;7.70;;;;;;;15.53;77.29;101687.05;1688776;83;21527;-84
2022/06/12 02:29:49;;;;;;;10.38;6.85;;;;;;;15.53;77.27;101686.16;1698698;83;21091;-84
2022/06/12 02:32:26;;;;;;;10.82;7.75;;;;;;;15.52;77.39;101689.27;1679352;84;21730;-84
2022/06/12 02:34:57;;;;;;;10.65;7.35;;;;;;;15.53;77.48;101689.70;1679160;84;21043;-84
2022/06/12 02:37:43;;;;;;;9.00;7.20;;;;;;;15.55;77.60;101689.30;1679122;84;21094;-84
2022/06/12 02:40:13;;;;;;;;;;;;;;;15.57;77.65;101686.68;1709332;83;21608;-83
2022/06/12 02:42:43;;;;;;;12.90;7.25;;;;;;;15.61;77.80;101688.52;1665247;84;20211;-83
2022/06/12 02:45:14;;;;;;;9.43;6.15;;;;;;;15.65;77.80;101691.69;1707004;83;22588;-83
2022/06/12 02:47:41;;;;;;;6.50;5.87;;;;;;;15.70;77.82;101694.45;1708352;83;21110;-84
2022/06/12 02:50:10;;;;;;;6.40;5.80;;;;;;;15.74;77.86;101695.00;1707435;83;21145;-85
2022/06/12 02:53:27;;;;;;;9.60;6.03;;;;;;;15.79;77.94;101694.66;1709114;83;21066;-84
2022/06/12 02:56:20;;;;;;;8.23;5.53;;;;;;;15.86;77.94;101696.98;1701102;83;21544;-84
2022/06/12 02:59:16;;;;;;;6.55;5.95;;;;;;;15.94;78.01;101694.05;1650232;86;22500;-85
2022/06/12 03:02:05;;;;;;;9.10;5.85;;;;;;;16.03;78.02;101703.92;1649664;86;21148;-84
2022/06/12 03:04:49;;;;;;;10.23;6.05;;;;;;;16.10;77.97;101698.77;1673783;85;21552;-86
2022/06/12 03:07:16;;;;;;;8.03;5.58;;;;;;;16.19;77.93;101707.31;1706731;83;21072;-85
2022/06/12 03:09:43;;;;;;;6.83;5.67;;;;;;;16.27;77.83;101708.36;1708518;83;21106;-85
2022/06/12 03:12:10;;;;;;;6.10;5.33;;;;;;;16.34;77.81;101706.68;1703906;83;21207;-85
2022/06/12 03:14:37;;;;;;;7.50;5.33;;;;;;;16.41;77.77;101708.58;1693539;83;21614;-84
2022/06/12 03:17:07;;;;;;;7.42;5.40;;;;;;;16.50;77.70;101707.40;1708706;83;21058;-85
2022/06/12 03:19:42;;;;;;;6.67;5.28;;;;;;;16.60;77.68;101709.77;1707738;83;21277;-85
2022/06/12 03:22:35;;;;;;;6.78;5.40;;;;;;;16.71;77.67;101712.15;1708675;83;21101;-85
2022/06/12 03:25:25;;;;;;;7.78;5.20;;;;;;;16.86;77.67;101711.96;1689394;83;21786;-84
2022/06/12 03:28:21;;;;;;;6.65;4.72;;;;;;;17.22;78.33;101718.21;1708222;83;21134;-84
2022/06/12 03:31:15;;;;;;;7.75;4.72;;;;;;;18.50;79.71;101711.56;1693583;83;21090;-85
2022/06/12 03:34:05;;;;;;;10.03;5.00;;;;;;;19.97;79.39;101706.09;1708646;83;21066;-83
2022/06/12 03:36:37;;;;;;;6.37;4.40;;;;;;;21.25;75.70;101709.97;1658312;84;21071;-83
2022/06/12 03:39:24;;;;;;;7.90;4.50;;;;;;;21.10;72.39;101712.25;1675227;84;21820;-85
2022/06/12 03:42:05;;;;;;;7.33;4.50;;;;;;;20.78;71.52;101712.34;1706846;83;21541;-84
2022/06/12 03:44:54;;;;;;;7.05;3.90;;;;;;;20.63;71.42;101711.00;1708661;83;21038;-83
2022/06/12 03:47:32;;;;;;;7.37;4.87;;;;;;;20.64;71.21;101711.01;1677094;83;21226;-84
2022/06/12 03:50:10;;;;;;;7.50;3.92;;;;;;;21.03;71.53;101715.84;1684223;82;21087;-83
2022/06/12 03:52:49;;;;;;;6.92;4.15;;;;;;;22.14;72.04;101713.95;1707649;83;21824;-83
2022/06/12 03:57:50;;;;;;;8.58;4.53;;;;;;;24.15;71.81;101709.42;1708483;83;21131;-83
2022/06/12 03:57:54;;;;;;;6.75;3.83;;;;;;;26.36;69.81;101711.22;1698623;83;21263;-84
2022/06/12 04:00:40;;;;;;;8.38;4.47;;;;;;;28.30;66.49;101709.16;1705080;83;21082;-84
2022/06/12 04:03:15;;;;;;;6.85;3.60;;;;;;;29.80;63.69;101707.29;1707540;83;21075;-83
2022/06/12 04:05:54;;;;;;;5.95;3.55;;;;;;;31.24;60.10;101710.67;1691630;83;21999;-84
2022/06/12 04:08:25;;;;;;;6.90;3.25;;;;;;;32.15;57.21;101713.55;1704837;83;21101;-85
2022/06/12 04:10:52;;;;;;;5.70;3.42;;;;;;;32.99;54.59;101712.83;1690531;83;21101;-85
2022/06/12 04:13:18;;;;;;;9.13;3.95;;;;;;;33.82;53.21;101713.70;1704146;83;21418;-85
2022/06/12 04:15:56;;;;;;;9.00;3.30;;;;;;;34.43;50.39;101709.23;1706086;83;21064;-85
2022/06/12 04:18:24;;;;;;;6.42;3.27;;;;;;;35.13;49.55;101715.42;1704740;83;21799;-85
2022/06/12 04:20:58;;;;;;;9.65;3.65;;;;;;;35.86;47.24;101713.53;1706340;83;21086;-84
2022/06/12 04:23:45;;;;;;;6.40;3.30;;;;;;;36.44;45.46;101713.70;1707815;83;21597;-85
2022/06/12 04:26:29;;;;;;;8.28;3.20;;;;;;;36.81;43.81;101707.05;1708348;83;21118;-84
2022/06/12 04:29:04;;;;;;;9.83;3.45;;;;;;;37.27;42.17;101709.23;1707453;83;21066;-85
2022/06/12 04:31:32;;;;;;;9.63;3.75;;;;;;;37.68;41.04;101709.94;1708205;83;21772;-85
2022/06/12 04:34:13;;;;;;;8.90;3.42;;;;;;;38.17;39.68;101714.48;1707890;83;21897;-85
2022/06/12 04:36:43;;;;;;;7.47;3.30;;;;;;;38.28;38.56;101710.91;1708494;83;21130;-85
2022/06/12 04:39:13;;;;;;;7.12;3.20;;;;;;;38.60;37.61;101703.42;1708642;83;21482;-85
2022/06/12 04:41:40;;;;;;;9.75;3.10;;;;;;;39.05;36.20;101707.64;1708416;83;21082;-85
2022/06/12 04:44:07;;;;;;;5.80;3.22;;;;;;;39.38;35.81;101705.87;1692587;83;22564;-85
2022/06/12 04:46:36;;;;;;;8.50;3.47;;;;;;;39.99;34.71;101706.30;1678007;84;21540;-85
2022/06/12 04:49:03;;;;;;;9.35;3.45;;;;;;;40.45;34.08;101710.27;1703965;83;21575;-86
2022/06/12 04:51:30;;;;;;;8.18;3.05;;;;;;;40.59;32.92;101712.70;1677726;85;21080;-85
2022/06/12 04:53:57;;;;;;;8.53;3.05;;;;;;;40.99;32.50;101713.32;1677639;85;21126;-84
2022/06/12 04:56:27;;;;;;;9.00;3.45;;;;;;;41.37;31.73;101707.63;1675539;84;21931;-85
2022/06/12 04:58:55;;;;;;;6.15;2.87;;;;;;;41.90;30.61;101716.17;1677307;85;21103;-86
2022/06/12 05:01:23;;;;;;;8.75;3.22;;;;;;;41.85;29.96;101715.71;1662811;85;21078;-84
2022/06/12 05:03:49;;;;;;;8.53;3.15;;;;;;;41.95;29.04;101712.44;1658660;85;21663;-84
2022/06/12 05:06:16;;;;;;;7.10;3.33;;;;;;;41.52;28.65;101706.23;1676970;85;21122;-86
2022/06/12 05:08:43;;;;;;;6.42;3.12;;;;;;;41.55;28.24;101708.70;1677823;85;22636;-86
2022/06/12 05:11:11;;;;;;;6.72;3.25;;;;;;;41.73;28.03;101708.06;1677751;85;21795;-85
2022/06/12 05:13:39;;;;;;;6.47;3.10;;;;;;;41.80;27.47;101710.59;1674657;83;21102;-85
2022/06/12 05:16:06;;;;;;;7.47;3.30;;;;;;;41.71;26.92;101708.69;1696645;84;21141;-86
2022/06/12 05:18:33;;;;;;;8.70;3.65;;;;;;;41.63;26.84;101711.30;1669798;85;21086;-85
2022/06/12 05:21:03;;;;;;;8.95;2.98;;;;;;;41.96;26.53;101716.45;1678356;84;21221;-86
2022/06/12 05:23:30;;;;;;;7.33;3.20;;;;;;;41.63;26.03;101680.89;1671246;85;21082;-85
2022/06/12 05:25:58;;;;;;;9.90;3.92;;;;;;;42.06;26.06;101705.94;1663097;84;21253;-87
2022/06/12 05:28:25;;;;;;;5.33;3.10;;;;;;;42.47;25.46;101704.77;1667922;84;21647;-86
2022/06/12 05:30:51;;;;;;;9.03;3.42;;;;;;;42.63;25.08;101711.09;1664238;85;21082;-86
2022/06/12 05:33:18;;;;;;;8.38;3.98;;;;;;;42.81;24.73;101704.78;1669951;84;21753;-85
2022/06/12 05:35:47;;;;;;;7.37;3.15;;;;;;;42.99;24.25;101713.22;1673581;85;21079;-85
2022/06/12 05:38:14;;;;;;;11.18;3.40;;;;;;;42.87;24.17;101705.55;1676747;85;21099;-85
2022/06/12 05:40:42;;;;;;;7.92;3.20;;;;;;;42.55;23.80;101702.64;1671656;85;21710;-85
2022/06/12 05:43:09;;;;;;;5.53;2.83;;;;;;;40.55;23.26;101698.81;1654533;85;21071;-86
2022/06/12 05:45:36;;;;;;;8.63;3.92;;;;;;;37.84;23.82;101696.81;1678581;84;22324;-87
2022/06/12 05:48:11;;;;;;;9.23;2.98;;;;;;;35.51;25.00;101698.40;1689172;83;21779;-85
2022/06/12 05:50:50;;;;;;;10.63;3.58;;;;;;;33.60;26.19;101696.30;1676104;84;21604;-85
2022/06/12 05:53:17;;;;;;;7.97;3.60;;;;;;;31.92;27.00;101695.59;1677358;84;21575;-85
2022/06/12 05:55:44;;;;;;;8.98;3.35;;;;;;;30.23;28.32;101700.08;1687593;84;21066;-85
2022/06/12 05:58:12;;;;;;;8.65;4.00;;;;;;;29.16;29.74;101705.24;1687300;83;22647;-85
2022/06/12 06:00:38;;;;;;;7.03;3.17;;;;;;;28.19;30.77;101700.97;1688338;83;21039;-87
2022/06/12 06:03:05;;;;;;;13.60;3.77;;;;;;;27.38;31.99;101704.41;1677461;83;21086;-88
2022/06/12 06:05:33;;;;;;;10.43;3.58;;;;;;;26.71;32.81;101714.82;1676522;83;21080;-87
2022/06/12 06:07:59;;;;;;;8.43;3.33;;;;;;;26.07;33.91;101711.50;1688880;83;21108;-85
2022/06/12 06:10:27;;;;;;;8.70;3.37;;;;;;;25.58;34.59;101712.58;1686006;84;21808;-86
2022/06/12 06:12:54;;;;;;;12.13;3.60;;;;;;;25.22;35.39;101714.66;1686256;84;21035;-85
2022/06/12 06:15:21;;;;;;;10.60;3.22;;;;;;;24.81;36.07;101709.66;1688501;84;21113;-84
2022/06/12 06:17:52;;;;;;;11.63;3.75;;;;;;;24.52;36.70;101703.45;1688245;83;21671;-84
2022/06/12 06:20:24;;;;;;;7.37;2.92;;;;;;;24.23;37.13;101703.91;1687415;84;21118;-85
2022/06/12 06:22:51;;;;;;;11.05;3.20;;;;;;;23.92;37.77;101702.19;1687518;84;21782;-87
2022/06/12 06:25:20;;;;;;;11.90;3.45;;;;;;;23.63;38.03;101710.17;1696047;83;38598;-85
2022/06/12 06:27:47;;;;;;;10.15;3.87;;;;;;;23.47;38.57;101704.13;1668688;84;21083;-86
2022/06/12 06:30:14;;;;;;;8.48;3.42;;;;;;;23.11;38.83;101709.06;1687373;83;21094;-87
2022/06/12 06:32:41;;;;;;;7.65;2.60;;;;;;;22.87;39.35;101709.73;1688405;83;21094;-88
2022/06/12 06:35:09;;;;;;;8.68;2.67;;;;;;;22.72;39.81;101709.89;1686228;84;21757;-88
2022/06/12 06:37:39;;;;;;;14.15;3.75;;;;;;;22.68;40.58;101711.72;1683513;83;21090;-88
2022/06/12 06:40:07;;;;;;;12.43;4.47;;;;;;;22.60;40.21;101712.26;1685052;84;21081;-86
2022/06/12 06:42:34;;;;;;;7.95;2.60;;;;;;;22.45;40.48;101711.06;1681424;83;21090;-90
2022/06/12 06:47:49;;;;;;;12.37;3.55;;;;;;;22.36;40.98;101715.17;1675852;84;21857;-87
2022/06/12 06:50:17;;;;;;;9.60;2.92;;;;;;;22.29;41.19;101713.85;1683135;84;21082;-87
2022/06/12 06:52:43;;;;;;;8.43;3.15;;;;;;;22.25;41.34;101715.21;1685098;84;21564;-87
2022/06/12 06:55:10;;;;;;;13.98;3.52;;;;;;;22.22;41.35;101712.55;1682952;83;21085;-91
2022/06/12 06:57:38;;;;;;;9.05;2.45;;;;;;;21.95;41.58;101674.33;1691767;83;21173;-87
2022/06/12 07:00:43;;;;;;;8.78;3.47;;;;;;;22.03;41.88;101692.57;1669276;84;21830;-94
2022/06/12 07:03:10;;;;;;;8.98;3.90;;;;;;;22.04;41.59;101710.91;1678080;85;21078;-89
2022/06/12 07:05:37;;;;;;;8.30;2.87;;;;;;;21.88;41.79;101706.97;1672461;84;21063;-87
2022/06/12 07:08:06;;;;;;;9.95;3.10;;;;;;;21.82;41.97;101709.70;1680350;84;21552;-90
2022/06/12 07:10:33;;;;;;;8.35;3.33;;;;;;;21.69;42.23;101691.92;1683943;84;21086;-89
2022/06/12 07:13:12;;;;;;;7.47;2.55;;;;;;;21.70;42.44;101691.03;1674782;84;21778;-94
2022/06/12 07:15:39;;;;;;;10.08;2.95;;;;;;;21.72;42.53;101690.58;1702525;83;21536;-94
2022/06/12 07:18:07;;;;;;;11.50;3.47;;;;;;;21.74;42.82;101692.80;1665295;84;21126;-89
2022/06/12 07:20:37;;;;;;;6.45;2.40;;;;;;;21.67;43.15;101673.63;1681133;84;21179;-95
2022/06/12 07:27:04;;;;;;;11.78;3.67;;;;;;;21.75;43.46;101673.11;1689642;84;21521;-90
2022/06/12 07:29:31;;;;;;;10.68;3.27;;;;;;;21.87;43.29;101697.17;1685470;84;21047;-87
2022/06/12 07:32:05;;;;;;;10.45;2.65;;;;;;;21.87;43.45;101695.83;1689918;83;21115;-87
2022/06/12 07:34:32;;;;;;;11.30;4.25;;;;;;;21.85;43.44;101696.75;1670837;84;21082;-93
2022/06/12 07:37:50;;;;;;;9.55;3.37;;;;;;;21.89;43.43;101703.41;1666413;84;21090;-90
2022/06/12 07:40:22;;;;;;;7.53;2.35;;;;;;;21.89;43.40;101703.86;1676492;84;22648;-87
2022/06/12 07:42:49;;;;;;;8.33;2.83;;;;;;;21.94;43.59;101697.57;1672546;83;21097;-87
2022/06/12 07:45:16;;;;;;;7.20;2.87;;;;;;;21.97;43.42;101698.45;1692220;83;21089;-89
2022/06/12 07:47:43;;;;;;;9.08;3.37;;;;;;;22.03;42.75;101703.30;1698710;83;22140;-92
2022/06/12 07:50:10;;;;;;;7.40;2.70;;;;;;;21.95;41.50;101702.47;1691596;83;21604;-89
2022/06/12 07:52:39;;;;;;;7.80;2.27;;;;;;;21.87;41.51;101707.89;1690945;83;21749;-87
2022/06/12 07:55:44;;;;;;;8.75;2.27;;;;;;;21.77;41.75;101702.13;1696961;83;21159;-92
2022/06/12 07:58:11;;;;;;;7.90;2.45;;;;;;;21.88;41.58;101708.77;1699266;83;21102;-89
2022/06/12 08:01:17;;;;;;;6.42;1.90;;;;;;;21.94;41.68;101706.95;1687299;83;21087;-94
2022/06/12 08:03:44;;;;;;;5.42;2.05;;;;;;;22.01;41.26;101705.10;1663593;83;21093;-88
2022/06/12 08:06:11;;;;;;;7.83;2.17;;;;;;;22.07;40.62;101702.83;1695305;83;21725;-87
2022/06/12 08:08:38;;;;;;;4.47;1.85;;;;;;;22.07;40.09;101684.05;1696309;83;21054;-87
2022/06/12 08:11:04;;;;;;;7.40;2.42;;;;;;;22.07;40.09;101684.05;1699715;83;21066;-88
2022/06/12 08:13:33;;;;;;;8.83;2.50;;;;;;;22.29;39.78;101703.12;1699952;83;21098;-88
2022/06/12 08:16:24;;;;;;;8.50;2.15;;;;;;;22.58;39.60;101693.95;1703635;83;21098;-92
2022/06/12 08:18:51;;;;;;;6.25;2.35;;;;;;;22.58;39.60;101693.95;1699956;83;22635;-86
2022/06/12 08:21:18;;;;;;;7.33;2.10;;;;;;;22.59;39.30;101676.92;1696276;83;21084;-86
2022/06/12 08:23:52;;;;;;;6.00;2.10;;;;;;;22.80;39.69;101701.76;1690566;83;21643;-85
2022/06/12 08:26:22;;;;;;;5.72;2.60;;;;;;;22.94;38.92;101702.51;1693596;83;21607;-89
2022/06/12 08:28:53;;;;;;;4.65;1.70;;;;;;;23.08;38.74;101701.03;1694191;83;21091;-89
2022/06/12 08:31:26;;;;;;;7.10;2.30;;;;;;;23.23;38.58;101706.67;1699817;83;21912;-88
2022/06/12 08:33:57;;;;;;;6.78;2.47;;;;;;;23.37;38.62;101698.00;1696675;83;21099;-90
2022/06/12 08:36:24;;;;;;;6.33;2.77;;;;;;;23.47;37.50;101700.09;1696896;83;21098;-85
2022/06/12 08:38:51;;;;;;;3.87;1.45;;;;;;;23.39;36.62;101706.92;1700237;83;21082;-85
2022/06/12 08:41:48;;;;;;;4.45;2.17;;;;;;;23.27;35.92;101710.66;1695871;83;21073;-89
2022/06/12 08:44:48;;;;;;;6.10;2.67;;;;;;;23.11;35.09;101714.90;1691838;83;21736;-86
2022/06/12 08:47:25;;;;;;;7.15;3.47;;;;;;;23.01;35.68;101718.99;1653117;85;21131;-86
2022/06/12 08:50:15;;;;;;;6.42;1.98;;;;;;;23.01;35.34;101718.99;1648192;85;21099;-88
2022/06/12 08:53:02;;;;;;;5.80;1.85;;;;;;;23.02;35.08;101716.73;1687035;84;21625;-83
2022/06/12 08:55:48;;;;;;;4.28;1.75;;;;;;;22.95;34.91;101720.84;1682501;84;21081;-89
2022/06/12 08:58:44;;;;;;;4.78;1.55;;;;;;;22.96;35.00;101718.61;1688928;84;21942;-84
2022/06/12 09:01:12;;;;;;;8.70;1.75;;;;;;;22.97;35.20;101724.39;1689495;84;21077;-83
2022/06/12 09:03:43;;;;;;;3.85;1.50;;;;;;;23.07;35.44;101716.72;1694534;83;21068;-87
2022/06/12 09:06:33;;;;;;;5.12;1.60;;;;;;;23.15;34.98;101726.03;1668620;84;21107;-83
2022/06/12 09:09:09;;;;;;;12.00;2.12;;;;;;;23.07;35.22;101716.27;1667686;84;21111;-83
2022/06/12 09:11:46;;;;;;;4.83;1.67;;;;;;;23.15;35.70;101724.69;1663546;85;21768;-84
2022/06/12 09:14:34;;;;;;;8.25;1.87;;;;;;;23.30;35.29;101719.13;1661515;85;21067;-88
2022/06/12 09:17:43;;;;;;;6.42;1.82;;;;;;;23.31;35.13;101710.14;1650073;85;21499;-88
2022/06/12 09:20:57;;;;;;;4.45;1.40;;;;;;;23.32;35.08;101717.30;1657675;85;21065;-93
2022/06/12 09:24:00;;;;;;;5.35;2.85;;;;;;;23.25;35.19;101718.28;1671701;84;27093;-92
2022/06/12 09:30:44;;;;;;;3.15;1.60;;;;;;;23.21;34.42;101701.31;1663143;86;21123;-91
2022/06/12 09:33:37;;;;;;;4.58;1.50;;;;;;;23.21;33.60;101703.12;1659650;85;21626;-88
2022/06/12 09:36:35;;;;;;;17.35;2.60;;;;;;;23.28;34.20;101694.96;1639340;86;21326;-86
2022/06/12 09:39:12;;;;;;;4.53;1.70;;;;;;;23.40;33.84;101697.94;1629583;87;21162;-86
2022/06/12 09:41:56;;;;;;;5.65;2.05;;;;;;;23.41;33.72;101698.84;1646350;86;21845;-88
2022/06/12 09:44:45;;;;;;;6.92;2.00;;;;;;;23.33;33.92;101692.66;1603833;87;21138;-89
2022/06/12 09:47:46;;;;;;;6.37;1.65;;;;;;;23.39;34.32;101689.92;1619210;87;21123;-89
2022/06/12 09:50:34;;;;;;;9.80;2.83;;;;;;;23.37;34.20;101696.66;1628820;87;21235;-90
2022/06/12 09:53:24;;;;;;;6.35;2.00;;;;;;;23.30;34.64;101684.20;1619311;86;21210;-86
2022/06/12 09:55:59;;;;;;;5.33;1.98;;;;;;;23.58;35.01;101687.41;1627525;86;22584;-84
2022/06/12 09:58:33;;;;;;;7.55;2.02;;;;;;;23.80;35.02;101679.05;1610175;87;21130;-84
2022/06/12 10:01:17;;;;;;;4.42;1.50;;;;;;;23.96;34.89;101681.94;1602672;88;21519;-85
2022/06/12 10:03:52;;;;;;;6.40;1.70;;;;;;;24.20;35.14;101673.92;1611286;88;21219;-83
2022/06/12 10:06:24;;;;;;;4.62;2.05;;;;;;;24.59;34.97;101671.94;1615421;88;21711;-84
2022/06/12 10:09:05;;;;;;;9.73;3.72;;;;;;;24.92;34.66;101685.19;1611471;88;23046;-87
2022/06/12 10:11:36;;;;;;;7.08;2.45;;;;;;;25.16;34.22;101684.27;1622002;88;21696;-84
2022/06/12 10:14:20;;;;;;;8.70;2.83;;;;;;;25.40;33.73;101681.08;1651409;86;21082;-84
2022/06/12 10:16:55;;;;;;;5.47;2.00;;;;;;;25.32;33.27;101673.64;1663788;85;21128;-84
2022/06/12 10:19:58;;;;;;;9.38;2.10;;;;;;;25.23;33.35;101672.48;1674161;84;21988;-84
2022/06/12 10:22:35;;;;;;;5.50;2.10;;;;;;;25.07;33.54;101670.98;1674408;85;21754;-87
2022/06/12 10:25:04;;;;;;;4.90;1.85;;;;;;;25.27;33.55;101667.92;1674116;85;21062;-83
2022/06/12 10:27:47;;;;;;;5.47;1.72;;;;;;;25.33;33.43;101670.47;1673999;84;21153;-84
2022/06/12 10:30:40;;;;;;;5.97;2.22;;;;;;;25.33;33.30;101674.05;1674130;85;21149;-84
2022/06/12 10:33:30;;;;;;;6.33;1.98;;;;;;;25.36;33.52;101661.86;1669750;84;21075;-84
2022/06/12 10:36:00;;;;;;;7.92;2.02;;;;;;;25.62;33.57;101664.44;1672665;85;21843;-84
2022/06/12 10:38:34;;;;;;;5.95;1.82;;;;;;;25.99;33.59;101666.27;1672621;85;21094;-83
2022/06/12 10:41:07;;;;;;;4.85;1.82;;;;;;;26.28;33.26;101657.91;1673299;85;22282;-84
2022/06/12 10:43:38;;;;;;;;;;;;;;;26.50;33.07;101657.77;1672705;84;21082;-84
2022/06/12 10:46:16;;;;;;;5.00;1.82;;;;;;;26.68;32.52;101655.04;1692392;82;20341;-83
2022/06/12 10:48:56;;;;;;;4.80;2.52;;;;;;;26.87;32.42;101651.82;1710660;83;21828;-86
2022/06/12 10:51:27;;;;;;;6.87;2.62;;;;;;;26.96;32.47;101659.19;1710567;83;21188;-86
2022/06/12 10:54:02;;;;;;;8.65;2.30;;;;;;;27.14;32.25;101655.52;1711679;83;21082;-87
2022/06/12 10:56:45;;;;;;;7.45;1.98;;;;;;;27.39;32.12;101647.59;1703289;83;21657;-87
2022/06/12 10:59:33;;;;;;;9.23;2.90;;;;;;;27.53;31.89;101634.98;1711445;83;21144;-84
2022/06/12 11:02:46;;;;;;;6.90;2.40;;;;;;;27.65;32.09;101638.66;1709726;83;21781;-87
2022/06/12 11:05:30;;;;;;;6.90;2.20;;;;;;;27.84;31.95;101638.94;1709061;83;21050;-87
2022/06/12 11:08:28;;;;;;;4.40;1.72;;;;;;;27.80;31.48;101630.95;1711759;83;21281;-87
2022/06/12 11:11:21;;;;;;;5.60;2.12;;;;;;;27.72;31.66;101628.51;1689198;83;21070;-87
2022/06/12 11:14:13;;;;;;;6.12;2.55;;;;;;;27.77;31.44;101627.90;1708886;83;21063;-87
2022/06/12 11:17:11;;;;;;;9.88;2.40;;;;;;;27.81;31.38;101632.74;1708135;83;21796;-87
2022/06/12 11:20:04;;;;;;;5.37;1.92;;;;;;;27.84;31.11;101638.06;1708401;83;21050;-87
2022/06/12 11:22:55;;;;;;;8.03;2.02;;;;;;;27.47;30.96;101644.66;1700550;83;21132;-87
2022/06/12 11:26:02;;;;;;;8.63;2.30;;;;;;;27.11;31.17;101638.94;1707534;83;21086;-84
2022/06/12 11:28:49;;;;;;;5.40;2.17;;;;;;;26.88;31.33;101639.63;1707378;83;20999;-88
2022/06/12 11:31:39;;;;;;;9.13;2.22;;;;;;;26.94;31.96;101629.98;1707312;83;22579;-84
2022/06/12 11:34:26;;;;;;;10.23;3.10;;;;;;;27.24;31.99;101620.53;1707863;83;21666;-88
2022/06/12 11:37:10;;;;;;;10.28;2.65;;;;;;;27.41;31.96;101617.34;1689889;83;21575;-84
2022/06/12 11:39:46;;;;;;;8.18;2.50;;;;;;;27.45;31.83;101614.95;1707575;83;21356;-84
2022/06/12 11:43:03;;;;;;;6.00;2.12;;;;;;;27.36;31.59;101611.66;1708377;83;21106;-84
2022/06/12 11:46:03;;;;;;;9.05;2.55;;;;;;;27.38;31.87;101611.14;1686068;83;21824;-84
2022/06/12 11:48:55;;;;;;;7.42;2.58;;;;;;;27.38;31.55;101620.61;1688569;84;21219;-84
2022/06/12 11:51:50;;;;;;;7.37;2.45;;;;;;;26.91;31.61;101619.73;1688855;84;21564;-84
2022/06/12 11:54:55;;;;;;;7.55;2.40;;;;;;;26.61;31.71;101618.80;1678826;84;21842;-84
2022/06/12 11:57:53;;;;;;;7.15;2.27;;;;;;;26.50;31.95;101607.81;1689153;84;21102;-84
2022/06/12 12:00:46;;;;;;;6.50;2.30;;;;;;;26.51;32.02;101598.77;1691007;84;21780;-85
2022/06/12 12:03:39;;;;;;;8.25;2.50;;;;;;;26.49;32.18;101605.16;1691043;84;21169;-84
2022/06/12 12:06:20;;;;;;;6.25;2.67;;;;;;;26.52;32.14;101575.34;1689129;84;21065;-84
2022/06/12 12:09:02;;;;;;;4.28;1.77;;;;;;;26.81;32.24;101587.18;1670365;84;21631;-84
2022/06/12 12:11:32;;;;;;;5.00;2.33;;;;;;;26.98;32.30;101594.78;1673202;84;21098;-84
2022/06/12 12:14:03;;;;;;;5.72;2.08;;;;;;;27.25;32.43;101587.62;1673075;85;21757;-84
2022/06/12 12:16:46;;;;;;;4.90;1.80;;;;;;;27.59;32.36;101592.89;1672838;84;21129;-85
2022/06/12 12:19:34;;;;;;;11.80;2.27;;;;;;;27.88;32.20;101585.61;1672384;85;21545;-84
2022/06/12 12:22:18;;;;;;;6.53;2.22;;;;;;;28.28;31.94;101585.11;1672773;85;21095;-87
2022/06/12 12:24:49;;;;;;;7.17;2.12;;;;;;;28.36;31.63;101578.55;1673366;85;21113;-84
2022/06/12 12:27:39;;;;;;;5.62;2.33;;;;;;;28.36;31.46;101575.84;1674058;85;22653;-86
2022/06/12 12:30:26;;;;;;;7.03;2.47;;;;;;;28.41;31.66;101576.09;1669615;85;21070;-84